createdAt,value
2023-09-13T00:01:01.881Z,101948.77
2023-09-13T00:03:52.596Z,101948.40
2023-09-13T00:06:43.274Z,101950.86
2023-09-13T00:09:33.759Z,101955.45
2023-09-13T00:12:24.244Z,101960.16
2023-09-13T00:15:15.045Z,101963.99
2023-09-13T00:18:05.840Z,101961.31
2023-09-13T00:20:56.397Z,101960.16
2023-09-13T00:23:47.933Z,101964.23
2023-09-13T00:26:38.418Z,101966.39
2023-09-13T00:29:31.651Z,101966.09
2023-09-13T00:32:21.854Z,101961.08
2023-09-13T00:35:12.546Z,101957.56
2023-09-13T00:38:03.087Z,101960.69
2023-09-13T00:40:54.089Z,101962.70
2023-09-13T00:43:44.738Z,101963.20
2023-09-13T00:46:36.017Z,101967.02
2023-09-13T00:49:27.918Z,101967.11
2023-09-13T00:52:18.977Z,101962.80
2023-09-13T00:55:11.363Z,101956.54
2023-09-13T00:58:02.928Z,101954.13
2023-09-13T01:00:55.278Z,101955.01
2023-09-13T01:03:45.909Z,101957.55
2023-09-13T01:06:38.906Z,101955.24
2023-09-13T01:09:29.847Z,101955.83
2023-09-13T01:12:23.287Z,101959.58
2023-09-13T01:15:14.028Z,101965.02
2023-09-13T01:18:07.465Z,101968.89
2023-09-13T01:21:07.829Z,101964.77
2023-09-13T01:24:12.166Z,101966.13
2023-09-13T01:27:10.356Z,101969.17
2023-09-13T01:30:02.294Z,101973.41
2023-09-13T01:32:53.508Z,101973.61
2023-09-13T01:35:44.847Z,101978.66
2023-09-13T01:38:35.344Z,101977.38
2023-09-13T01:41:28.281Z,101975.43
2023-09-13T01:44:19.211Z,101971.77
2023-09-13T01:47:10.164Z,101972.56
2023-09-13T01:50:00.817Z,101974.73
2023-09-13T01:52:51.388Z,101972.02
2023-09-13T01:56:00.727Z,101969.34
2023-09-13T01:58:55.336Z,101967.99
2023-09-13T02:01:54.766Z,101963.91
2023-09-13T02:04:54.929Z,101962.94
2023-09-13T02:07:47.750Z,101964.94
2023-09-13T02:10:40.679Z,101971.73
2023-09-13T02:13:31.193Z,101978.86
2023-09-13T02:16:22.896Z,101985.21
2023-09-13T02:19:13.475Z,101980.92
2023-09-13T02:22:04.075Z,101983.23
2023-09-13T02:24:55.124Z,101980.11
2023-09-13T02:27:45.760Z,101981.64
2023-09-13T02:30:37.305Z,101988.27
2023-09-13T02:33:27.925Z,101989.42
2023-09-13T02:36:21.183Z,101988.77
2023-09-13T02:39:31.954Z,101984.70
2023-09-13T02:42:22.567Z,101980.09
2023-09-13T02:45:13.357Z,101976.36
2023-09-13T02:48:03.981Z,101979.72
2023-09-13T02:50:54.582Z,101974.66
2023-09-13T02:53:45.372Z,101975.10
2023-09-13T02:56:36.125Z,101975.84
2023-09-13T02:59:26.948Z,101979.05
2023-09-13T03:02:17.602Z,101981.84
2023-09-13T03:05:08.954Z,101984.52
2023-09-13T03:08:00.563Z,101977.20
2023-09-13T03:10:50.968Z,101974.38
2023-09-13T03:13:43.824Z,101974.93
2023-09-13T03:16:34.859Z,101974.15
2023-09-13T03:19:26.068Z,101972.85
2023-09-13T03:22:17.291Z,101967.16
2023-09-13T03:25:08.368Z,101959.26
2023-09-13T03:27:59.518Z,101956.67
2023-09-13T03:30:50.087Z,101960.25
2023-09-13T03:33:42.178Z,101966.72
2023-09-13T03:36:33.026Z,101963.35
2023-09-13T03:39:27.005Z,101954.86
2023-09-13T03:42:17.398Z,101946.33
2023-09-13T03:45:08.827Z,101940.91
2023-09-13T03:47:59.330Z,101933.38
2023-09-13T03:50:50.234Z,101928.41
2023-09-13T03:53:40.832Z,101923.58
2023-09-13T03:56:31.616Z,101922.95
2023-09-13T03:59:26.230Z,101922.70
2023-09-13T04:02:16.861Z,101923.29
2023-09-13T04:05:08.014Z,101926.29
2023-09-13T04:07:58.646Z,101930.31
2023-09-13T04:10:49.147Z,101931.30
2023-09-13T04:13:39.576Z,101928.08
2023-09-13T04:16:30.129Z,101925.25
2023-09-13T04:19:20.665Z,101926.45
2023-09-13T04:22:12.380Z,101925.00
2023-09-13T04:25:03.156Z,101921.48
2023-09-13T04:27:53.815Z,101921.62
2023-09-13T04:30:44.587Z,101923.50
2023-09-13T04:33:49.178Z,101919.02
2023-09-13T04:36:40.179Z,101914.15
2023-09-13T04:39:32.766Z,101915.23
2023-09-13T04:42:23.142Z,101916.08
2023-09-13T04:45:13.793Z,101915.95
2023-09-13T04:48:04.926Z,101915.14
2023-09-13T04:50:55.479Z,101915.48
2023-09-13T04:53:46.217Z,101912.55
2023-09-13T04:56:37.432Z,101908.21
2023-09-13T04:59:42.391Z,101910.09
2023-09-13T05:02:33.142Z,101909.35
2023-09-13T05:05:24.000Z,101914.37
2023-09-13T05:08:14.411Z,101913.23
2023-09-13T05:11:05.595Z,101912.20
2023-09-13T05:14:09.987Z,101911.70
2023-09-13T05:17:00.612Z,101908.19
2023-09-13T05:19:51.228Z,101909.69
2023-09-13T05:22:41.759Z,101913.77
2023-09-13T05:25:32.327Z,101910.79
2023-09-13T05:28:22.906Z,101912.20
2023-09-13T05:31:13.491Z,101911.77
2023-09-13T05:34:04.031Z,101912.98
2023-09-13T05:36:54.569Z,101912.85
2023-09-13T05:39:45.110Z,101913.38
2023-09-13T05:42:36.562Z,101912.35
2023-09-13T05:45:27.050Z,101905.81
2023-09-13T05:48:17.573Z,101906.54
2023-09-13T05:51:08.074Z,101902.60
2023-09-13T05:53:58.652Z,101905.39
2023-09-13T05:56:49.137Z,101906.52
2023-09-13T05:59:41.229Z,101911.05
2023-09-13T06:02:31.530Z,101910.95
2023-09-13T06:05:22.168Z,101915.70
2023-09-13T06:08:12.645Z,101918.77
2023-09-13T06:11:03.146Z,101923.11
2023-09-13T06:13:54.370Z,101927.97
2023-09-13T06:16:44.995Z,101930.02
2023-09-13T06:19:35.617Z,101931.17
2023-09-13T06:22:26.759Z,101941.73
2023-09-13T06:25:18.685Z,101943.52
2023-09-13T06:28:09.391Z,101948.44
2023-09-13T06:31:03.814Z,101946.80
2023-09-13T06:33:55.486Z,101941.12
2023-09-13T06:36:46.806Z,101946.22
2023-09-13T06:39:38.024Z,101949.77
2023-09-13T06:42:29.166Z,101948.30
2023-09-13T06:45:26.435Z,101949.05
2023-09-13T06:48:19.917Z,101955.23
2023-09-13T06:51:48.900Z,101956.59
2023-09-13T06:54:25.465Z,101954.70
2023-09-13T06:57:20.075Z,101953.17
2023-09-13T07:00:16.649Z,101951.33
2023-09-13T07:03:14.201Z,101948.98
2023-09-13T07:06:06.910Z,101949.15
2023-09-13T07:08:57.964Z,101950.01
2023-09-13T07:11:48.443Z,101952.78
2023-09-13T07:14:38.940Z,101956.89
2023-09-13T07:17:29.520Z,101956.73
2023-09-13T07:20:20.077Z,101953.27
2023-09-13T07:23:10.641Z,101954.34
2023-09-13T07:26:01.654Z,101958.11
2023-09-13T07:28:52.249Z,101957.44
2023-09-13T07:31:42.793Z,101954.86
2023-09-13T07:34:33.497Z,101953.94
2023-09-13T07:37:24.031Z,101957.91
2023-09-13T07:40:14.661Z,101960.05
2023-09-13T07:43:06.294Z,101962.00
2023-09-13T07:45:56.815Z,101959.59
2023-09-13T07:48:47.329Z,101955.23
2023-09-13T07:51:37.860Z,101959.06
2023-09-13T07:54:29.350Z,101959.65
2023-09-13T07:57:19.907Z,101957.49
2023-09-13T08:00:11.165Z,101959.62
2023-09-13T08:03:02.883Z,101958.62
2023-09-13T08:05:53.584Z,101949.79
2023-09-13T08:08:44.454Z,101945.79
2023-09-13T08:11:35.364Z,101946.29
2023-09-13T08:14:25.889Z,101942.85
2023-09-13T08:17:17.777Z,101946.90
2023-09-13T08:20:15.671Z,101948.51
2023-09-13T08:23:06.444Z,101949.04
2023-09-13T08:26:03.278Z,101944.58
2023-09-13T08:29:05.206Z,101941.89
2023-09-13T08:31:55.395Z,101937.25
2023-09-13T08:34:46.080Z,101933.36
2023-09-13T08:37:36.716Z,101933.69
2023-09-13T08:40:27.200Z,101930.36
2023-09-13T08:43:20.412Z,101921.23
2023-09-13T08:46:12.397Z,101918.29
2023-09-13T08:49:03.637Z,101916.08
2023-09-13T08:51:54.690Z,101908.49
2023-09-13T08:54:58.653Z,101912.36
2023-09-13T08:57:50.457Z,101910.83
2023-09-13T09:00:42.650Z,101912.70
2023-09-13T09:03:33.892Z,101915.48
2023-09-13T09:06:25.064Z,101915.31
2023-09-13T09:09:16.032Z,101913.95
2023-09-13T09:12:09.301Z,101909.19
2023-09-13T09:14:59.412Z,101907.90
2023-09-13T09:17:51.315Z,101904.27
2023-09-13T09:20:45.244Z,101900.46
2023-09-13T09:23:36.463Z,101898.44
2023-09-13T09:26:27.244Z,101898.34
2023-09-13T09:29:21.467Z,101893.20
2023-09-13T09:32:14.367Z,101892.13
2023-09-13T09:35:06.404Z,101878.33
2023-09-13T09:37:56.937Z,101871.38
2023-09-13T09:40:47.689Z,101869.16
2023-09-13T09:43:38.568Z,101875.94
2023-09-13T09:46:29.287Z,101876.95
2023-09-13T09:49:19.835Z,101876.45
2023-09-13T09:52:10.370Z,101873.88
2023-09-13T09:55:00.987Z,101867.86
2023-09-13T09:57:52.680Z,101868.16
2023-09-13T10:00:47.121Z,101864.04
2023-09-13T10:03:37.834Z,101857.81
2023-09-13T10:06:28.379Z,101851.16
2023-09-13T10:09:18.924Z,101851.40
2023-09-13T10:12:10.756Z,101849.02
2023-09-13T10:15:05.688Z,101853.10
2023-09-13T10:17:57.835Z,101845.16
2023-09-13T10:20:48.601Z,101846.66
2023-09-13T10:23:42.427Z,101847.75
2023-09-13T10:26:33.858Z,101840.77
2023-09-13T10:29:27.357Z,101829.63
2023-09-13T10:32:19.376Z,101831.97
2023-09-13T10:35:13.180Z,101833.31
2023-09-13T10:38:05.643Z,101828.48
2023-09-13T10:41:00.851Z,101821.11
2023-09-13T10:43:51.469Z,101818.27
2023-09-13T10:46:43.321Z,101820.14
2023-09-13T10:49:34.373Z,101819.04
2023-09-13T10:52:25.267Z,101811.56
2023-09-13T10:55:15.866Z,101803.06
2023-09-13T10:58:09.774Z,101796.96
2023-09-13T11:01:00.548Z,101790.80
2023-09-13T11:03:51.274Z,101786.92
2023-09-13T11:06:42.901Z,101787.00
2023-09-13T11:09:33.406Z,101788.88
2023-09-13T11:12:28.721Z,101787.69
2023-09-13T11:15:23.281Z,101782.25
2023-09-13T11:18:17.280Z,101775.20
2023-09-13T11:21:19.372Z,101764.84
2023-09-13T11:24:26.268Z,101762.11
2023-09-13T11:27:21.740Z,101761.23
2023-09-13T11:30:12.430Z,101764.42
2023-09-13T11:33:04.852Z,101769.58
2023-09-13T11:35:56.433Z,101772.90
2023-09-13T11:38:47.281Z,101776.95
2023-09-13T11:41:54.168Z,101775.50
2023-09-13T11:45:02.024Z,101777.49
2023-09-13T11:47:54.373Z,101777.21
2023-09-13T11:50:49.710Z,101775.58
2023-09-13T11:53:41.353Z,101771.45
2023-09-13T11:56:45.275Z,101765.71
2023-09-13T11:59:38.638Z,101761.16
2023-09-13T12:02:32.697Z,101764.39
2023-09-13T12:05:35.213Z,101764.39
2023-09-13T12:08:37.285Z,101761.02
2023-09-13T12:11:28.228Z,101765.86
2023-09-13T12:14:30.917Z,101769.48
2023-09-13T12:17:40.026Z,101770.74
2023-09-13T12:20:32.867Z,101760.10
2023-09-13T12:23:23.418Z,101757.92
2023-09-13T12:26:14.673Z,101757.15
2023-09-13T12:29:06.409Z,101756.35
2023-09-13T12:31:59.249Z,101756.30
2023-09-13T12:34:50.082Z,101755.00
2023-09-13T12:37:40.621Z,101756.31
2023-09-13T12:40:31.271Z,101757.22
2023-09-13T12:43:22.351Z,101755.36
2023-09-13T12:46:15.556Z,101752.88
2023-09-13T12:49:06.157Z,101745.86
2023-09-13T12:51:56.745Z,101747.36
2023-09-13T12:54:47.507Z,101748.52
2023-09-13T12:57:38.174Z,101746.71
2023-09-13T13:00:28.836Z,101741.71
2023-09-13T13:03:19.563Z,101734.54
2023-09-13T13:06:10.480Z,101726.88
2023-09-13T13:09:09.964Z,101722.76
2023-09-13T13:12:00.132Z,101728.74
2023-09-13T13:14:53.713Z,101726.88
2023-09-13T13:17:47.473Z,101727.34
2023-09-13T13:20:43.881Z,101723.34
2023-09-13T13:23:43.841Z,101722.21
2023-09-13T13:26:34.630Z,101718.86
2023-09-13T13:29:25.103Z,101713.27
2023-09-13T13:32:15.651Z,101708.86
2023-09-13T13:35:06.541Z,101706.56
2023-09-13T13:37:57.148Z,101693.30
2023-09-13T13:40:47.642Z,101684.06
2023-09-13T13:43:38.808Z,101678.10
2023-09-13T13:46:30.216Z,101674.23
2023-09-13T13:49:20.459Z,101673.20
2023-09-13T13:52:10.892Z,101673.72
2023-09-13T13:55:01.297Z,101665.92
2023-09-13T13:57:51.939Z,101657.33
2023-09-13T14:00:42.387Z,101652.55
2023-09-13T14:03:33.085Z,101654.59
2023-09-13T14:06:23.738Z,101666.52
2023-09-13T14:09:15.050Z,101657.70
2023-09-13T14:12:06.733Z,101649.41
2023-09-13T14:14:57.253Z,101649.48
2023-09-13T14:17:47.812Z,101644.45
2023-09-13T14:20:42.840Z,101639.92
2023-09-13T14:23:33.201Z,101640.73
2023-09-13T14:26:23.560Z,101639.73
2023-09-13T14:29:15.949Z,101633.96
2023-09-13T14:32:07.038Z,101630.79
2023-09-13T14:35:00.770Z,101624.73
2023-09-13T14:37:51.336Z,101618.55
2023-09-13T14:40:41.865Z,101614.12
2023-09-13T14:43:32.371Z,101605.31
2023-09-13T14:46:22.868Z,101602.65
2023-09-13T14:49:13.293Z,101605.77
2023-09-13T14:52:03.769Z,101610.71
2023-09-13T14:54:56.622Z,101609.23
2023-09-13T14:57:48.408Z,101607.63
2023-09-13T15:00:38.876Z,101604.86
2023-09-13T15:03:30.842Z,101597.15
2023-09-13T15:06:21.341Z,101584.66
2023-09-13T15:09:12.105Z,101575.39
2023-09-13T15:12:02.901Z,101570.34
2023-09-13T15:14:53.303Z,101571.06
2023-09-13T15:17:43.803Z,101572.02
2023-09-13T15:20:34.807Z,101570.30
2023-09-13T15:23:25.274Z,101571.63
2023-09-13T15:26:15.689Z,101576.27
2023-09-13T15:29:06.217Z,101576.24
2023-09-13T15:34:49.954Z,101572.15
2023-09-13T15:37:40.346Z,101565.23
2023-09-13T15:40:30.806Z,101559.64
2023-09-13T15:43:22.213Z,101561.22
2023-09-13T15:46:14.730Z,101558.30
2023-09-13T15:49:05.203Z,101558.96
2023-09-13T15:51:55.677Z,101562.27
2023-09-13T15:54:46.133Z,101561.46
2023-09-13T15:57:36.577Z,101565.66
2023-09-13T16:00:27.100Z,101567.55
2023-09-13T16:03:18.494Z,101564.80
2023-09-13T16:06:09.034Z,101564.48
2023-09-13T16:08:59.473Z,101565.16
2023-09-13T16:11:49.937Z,101564.41
2023-09-13T16:14:40.904Z,101552.05
2023-09-13T16:17:31.300Z,101546.05
2023-09-13T16:20:21.794Z,101542.98
2023-09-13T16:23:14.179Z,101539.13
2023-09-13T16:26:04.606Z,101533.91
2023-09-13T16:28:55.089Z,101527.95
2023-09-13T16:31:45.571Z,101521.85
2023-09-13T16:34:36.010Z,101521.45
2023-09-13T16:37:26.511Z,101516.99
2023-09-13T16:40:17.131Z,101512.31
2023-09-13T16:43:07.606Z,101503.73
2023-09-13T16:45:58.630Z,101507.55
2023-09-13T16:48:49.136Z,101492.95
2023-09-13T16:51:39.711Z,101492.11
2023-09-13T16:54:30.164Z,101487.73
2023-09-13T16:57:21.174Z,101492.70
2023-09-13T17:00:12.308Z,101478.67
2023-09-13T17:03:02.848Z,101468.79
2023-09-13T17:05:53.429Z,101461.45
2023-09-13T17:08:44.165Z,101466.16
2023-09-13T17:11:35.302Z,101464.68
2023-09-13T17:14:25.455Z,101461.15
2023-09-13T17:17:22.813Z,101459.64
2023-09-13T17:20:13.558Z,101454.35
2023-09-13T17:23:04.007Z,101442.61
2023-09-13T17:25:54.757Z,101439.30
2023-09-13T17:28:46.188Z,101437.13
2023-09-13T17:31:36.925Z,101436.52
2023-09-13T17:34:27.399Z,101429.79
2023-09-13T17:37:17.907Z,101423.34
2023-09-13T17:40:09.733Z,101424.73
2023-09-13T17:43:01.148Z,101425.58
2023-09-13T17:45:52.490Z,101430.18
2023-09-13T17:48:43.248Z,101431.36
2023-09-13T17:51:34.478Z,101424.09
2023-09-13T17:54:25.022Z,101421.45
2023-09-13T17:57:15.573Z,101421.77
2023-09-13T18:00:09.249Z,101420.46
2023-09-13T18:03:03.639Z,101413.46
2023-09-13T18:05:54.385Z,101413.02
2023-09-13T18:08:45.097Z,101405.42
2023-09-13T18:11:38.104Z,101402.30
2023-09-13T18:14:28.645Z,101391.16
2023-09-13T18:17:19.823Z,101387.38
2023-09-13T18:20:12.957Z,101389.11
2023-09-13T18:23:07.009Z,101383.40
2023-09-13T18:25:57.412Z,101380.67
2023-09-13T18:28:48.347Z,101383.46
2023-09-13T18:31:38.975Z,101373.78
2023-09-13T18:34:29.849Z,101374.60
2023-09-13T18:37:20.368Z,101376.52
2023-09-13T18:40:11.583Z,101372.64
2023-09-13T18:43:04.310Z,101365.69
2023-09-13T18:46:01.372Z,101363.38
2023-09-13T18:48:52.134Z,101355.27
2023-09-13T18:51:45.781Z,101354.63
2023-09-13T18:54:36.797Z,101353.75
2023-09-13T18:57:31.363Z,101352.05
2023-09-13T19:00:21.657Z,101354.55
2023-09-13T19:03:12.355Z,101356.83
2023-09-13T19:06:03.787Z,101364.41
2023-09-13T19:08:55.100Z,101364.30
2023-09-13T19:11:45.799Z,101362.34
2023-09-13T19:14:36.383Z,101360.08
2023-09-13T19:17:27.644Z,101354.64
2023-09-13T19:20:24.735Z,101358.50
2023-09-13T19:23:15.289Z,101371.31
2023-09-13T19:26:05.998Z,101374.70
2023-09-13T19:28:56.507Z,101369.09
2023-09-13T19:31:47.148Z,101362.30
2023-09-13T19:34:37.760Z,101363.39
2023-09-13T19:37:28.252Z,101372.77
2023-09-13T19:40:19.000Z,101377.64
2023-09-13T19:43:09.509Z,101375.88
2023-09-13T19:46:01.989Z,101384.02
2023-09-13T19:48:52.668Z,101376.36
2023-09-13T19:51:43.281Z,101378.83
2023-09-13T19:54:34.506Z,101378.11
2023-09-13T19:57:24.766Z,101379.42
2023-09-13T20:00:16.316Z,101378.52
2023-09-13T20:03:07.148Z,101379.86
2023-09-13T20:05:57.666Z,101376.61
2023-09-13T20:08:48.449Z,101379.85
2023-09-13T20:11:42.587Z,101389.13
2023-09-13T20:14:33.418Z,101386.51
2023-09-13T20:17:25.442Z,101384.05
2023-09-13T20:20:15.504Z,101387.76
2023-09-13T20:23:06.309Z,101389.27
2023-09-13T20:25:57.598Z,101391.31
2023-09-13T20:28:48.312Z,101389.73
2023-09-13T20:31:39.124Z,101389.39
2023-09-13T20:34:31.803Z,101395.45
2023-09-13T20:37:22.367Z,101397.85
2023-09-13T20:40:13.678Z,101403.75
2023-09-13T20:43:04.122Z,101405.93
2023-09-13T20:45:54.928Z,101410.55
2023-09-13T20:48:45.836Z,101411.69
2023-09-13T20:51:37.757Z,101411.36
2023-09-13T20:54:28.972Z,101415.91
2023-09-13T20:57:19.739Z,101415.93
2023-09-13T21:00:11.244Z,101420.38
2023-09-13T21:03:03.558Z,101430.13
2023-09-13T21:05:57.622Z,101428.67
2023-09-13T21:08:48.500Z,101424.29
2023-09-13T21:11:40.043Z,101416.76
2023-09-13T21:14:31.096Z,101414.05
2023-09-13T21:17:23.963Z,101418.63
2023-09-13T21:20:14.958Z,101418.90
2023-09-13T21:23:08.887Z,101419.30
2023-09-13T21:25:59.615Z,101416.19
2023-09-13T21:28:50.783Z,101421.66
2023-09-13T21:31:41.271Z,101418.86
2023-09-13T21:34:35.025Z,101420.95
2023-09-13T21:37:32.162Z,101421.39
2023-09-13T21:40:25.039Z,101422.94
2023-09-13T21:43:15.651Z,101420.00
2023-09-13T21:46:06.675Z,101426.35
2023-09-13T21:48:57.492Z,101424.40
2023-09-13T21:51:48.367Z,101423.20
2023-09-13T21:54:44.188Z,101429.27
2023-09-13T21:57:38.691Z,101429.71
2023-09-13T22:00:29.499Z,101435.02
2023-09-13T22:03:21.219Z,101439.87
2023-09-13T22:06:11.826Z,101433.27
2023-09-13T22:09:02.556Z,101434.60
2023-09-13T22:11:53.831Z,101435.23
2023-09-13T22:14:44.544Z,101435.10
2023-09-13T22:17:35.142Z,101431.22
2023-09-13T22:20:25.840Z,101433.50
2023-09-13T22:23:16.318Z,101435.73
2023-09-13T22:26:06.875Z,101439.67
2023-09-13T22:29:03.201Z,101444.03
2023-09-13T22:31:54.131Z,101445.36
2023-09-13T22:34:45.341Z,101444.95
2023-09-13T22:37:36.330Z,101441.85
2023-09-13T22:40:26.891Z,101441.71
2023-09-13T22:43:17.426Z,101444.79
2023-09-13T22:46:09.660Z,101439.06
2023-09-13T22:49:00.351Z,101444.88
2023-09-13T22:51:53.092Z,101452.36
2023-09-13T22:54:43.677Z,101453.20
2023-09-13T22:57:34.347Z,101451.66
2023-09-13T23:00:24.990Z,101445.85
2023-09-13T23:03:18.160Z,101448.52
2023-09-13T23:06:14.779Z,101452.70
2023-09-13T23:09:09.880Z,101449.54
2023-09-13T23:11:59.953Z,101444.36
2023-09-13T23:14:50.452Z,101439.85
2023-09-13T23:17:41.061Z,101442.98
2023-09-13T23:20:31.618Z,101440.83
2023-09-13T23:23:23.694Z,101444.23
2023-09-13T23:26:14.203Z,101448.21
2023-09-13T23:29:06.723Z,101448.75
2023-09-13T23:31:57.065Z,101450.41
2023-09-13T23:34:47.706Z,101451.48
2023-09-13T23:37:39.086Z,101452.80
2023-09-13T23:40:30.381Z,101454.08
2023-09-13T23:43:20.808Z,101450.21
2023-09-13T23:46:12.007Z,101453.98
2023-09-13T23:49:02.652Z,101458.23
2023-09-13T23:51:53.206Z,101467.01
2023-09-13T23:54:43.882Z,101465.93
2023-09-13T23:57:34.546Z,101467.52
